sensor_id;sensor_type;location;lat;lon;timestamp;P1;durP1;ratioP1;P2;durP2;ratioP2
14817;SDS011;7500;57.698;11.986;2023-09-30T00:01:08;20.60;;;4.53;;
14817;SDS011;7500;57.698;11.986;2023-09-30T00:03:34;21.13;;;4.10;;
14817;SDS011;7500;57.698;11.986;2023-09-30T00:06:01;16.40;;;4.00;;
14817;SDS011;7500;57.698;11.986;2023-09-30T00:08:28;17.73;;;4.67;;
14817;SDS011;7500;57.698;11.986;2023-09-30T00:10:57;19.30;;;4.40;;
14817;SDS011;7500;57.698;11.986;2023-09-30T00:13:23;18.77;;;4.33;;
14817;SDS011;7500;57.698;11.986;2023-09-30T00:15:50;18.10;;;4.33;;
14817;SDS011;7500;57.698;11.986;2023-09-30T00:18:16;17.50;;;4.40;;
14817;SDS011;7500;57.698;11.986;2023-09-30T00:20:43;18.50;;;4.80;;
14817;SDS011;7500;57.698;11.986;2023-09-30T00:23:09;22.43;;;4.10;;
14817;SDS011;7500;57.698;11.986;2023-09-30T00:25:36;20.60;;;4.23;;
14817;SDS011;7500;57.698;11.986;2023-09-30T00:28:06;22.27;;;4.40;;
14817;SDS011;7500;57.698;11.986;2023-09-30T00:30:32;24.60;;;4.60;;
14817;SDS011;7500;57.698;11.986;2023-09-30T00:32:59;20.77;;;5.13;;
14817;SDS011;7500;57.698;11.986;2023-09-30T00:35:25;17.33;;;4.27;;
14817;SDS011;7500;57.698;11.986;2023-09-30T00:37:52;18.57;;;3.97;;
14817;SDS011;7500;57.698;11.986;2023-09-30T00:40:18;15.03;;;4.23;;
14817;SDS011;7500;57.698;11.986;2023-09-30T00:42:45;20.43;;;4.67;;
14817;SDS011;7500;57.698;11.986;2023-09-30T00:45:13;17.77;;;3.97;;
14817;SDS011;7500;57.698;11.986;2023-09-30T00:47:40;15.47;;;4.37;;
14817;SDS011;7500;57.698;11.986;2023-09-30T00:50:06;28.57;;;5.17;;
14817;SDS011;7500;57.698;11.986;2023-09-30T00:52:35;17.87;;;4.90;;
14817;SDS011;7500;57.698;11.986;2023-09-30T00:55:03;20.53;;;4.40;;
14817;SDS011;7500;57.698;11.986;2023-09-30T00:57:31;20.00;;;4.67;;
14817;SDS011;7500;57.698;11.986;2023-09-30T00:59:57;22.10;;;4.50;;
14817;SDS011;7500;57.698;11.986;2023-09-30T01:02:26;18.00;;;4.20;;
14817;SDS011;7500;57.698;11.986;2023-09-30T01:04:53;21.30;;;4.17;;
14817;SDS011;7500;57.698;11.986;2023-09-30T01:07:20;24.47;;;5.00;;
14817;SDS011;7500;57.698;11.986;2023-09-30T01:09:47;22.07;;;4.73;;
14817;SDS011;7500;57.698;11.986;2023-09-30T01:12:14;19.67;;;4.30;;
14817;SDS011;7500;57.698;11.986;2023-09-30T01:14:40;16.67;;;4.10;;
14817;SDS011;7500;57.698;11.986;2023-09-30T01:17:07;20.10;;;4.17;;
14817;SDS011;7500;57.698;11.986;2023-09-30T01:19:38;20.80;;;4.53;;
14817;SDS011;7500;57.698;11.986;2023-09-30T01:22:06;23.17;;;4.60;;
14817;SDS011;7500;57.698;11.986;2023-09-30T01:24:38;22.07;;;4.67;;
14817;SDS011;7500;57.698;11.986;2023-09-30T01:27:04;21.83;;;4.77;;
14817;SDS011;7500;57.698;11.986;2023-09-30T01:29:31;24.53;;;4.97;;
14817;SDS011;7500;57.698;11.986;2023-09-30T01:31:57;16.47;;;4.00;;
14817;SDS011;7500;57.698;11.986;2023-09-30T01:34:24;16.70;;;4.23;;
14817;SDS011;7500;57.698;11.986;2023-09-30T01:36:50;18.40;;;4.10;;
14817;SDS011;7500;57.698;11.986;2023-09-30T01:39:18;21.17;;;4.77;;
14817;SDS011;7500;57.698;11.986;2023-09-30T01:41:45;23.17;;;5.27;;
14817;SDS011;7500;57.698;11.986;2023-09-30T01:44:11;21.27;;;4.63;;
14817;SDS011;7500;57.698;11.986;2023-09-30T01:46:38;25.50;;;5.20;;
14817;SDS011;7500;57.698;11.986;2023-09-30T01:49:05;20.13;;;4.37;;
14817;SDS011;7500;57.698;11.986;2023-09-30T01:51:31;20.30;;;4.57;;
14817;SDS011;7500;57.698;11.986;2023-09-30T01:53:58;22.07;;;4.23;;
14817;SDS011;7500;57.698;11.986;2023-09-30T01:56:26;19.40;;;4.77;;
14817;SDS011;7500;57.698;11.986;2023-09-30T01:58:52;20.50;;;4.53;;
14817;SDS011;7500;57.698;11.986;2023-09-30T02:01:19;21.40;;;4.50;;
14817;SDS011;7500;57.698;11.986;2023-09-30T02:03:45;20.20;;;4.60;;
14817;SDS011;7500;57.698;11.986;2023-09-30T02:06:12;23.07;;;5.00;;
14817;SDS011;7500;57.698;11.986;2023-09-30T02:08:38;22.73;;;4.53;;
14817;SDS011;7500;57.698;11.986;2023-09-30T02:11:05;24.83;;;4.80;;
14817;SDS011;7500;57.698;11.986;2023-09-30T02:13:33;20.93;;;5.07;;
14817;SDS011;7500;57.698;11.986;2023-09-30T02:16:00;24.53;;;4.50;;
14817;SDS011;7500;57.698;11.986;2023-09-30T02:18:27;23.50;;;5.47;;
14817;SDS011;7500;57.698;11.986;2023-09-30T02:20:57;21.30;;;4.63;;
14817;SDS011;7500;57.698;11.986;2023-09-30T02:23:24;22.20;;;4.60;;
14817;SDS011;7500;57.698;11.986;2023-09-30T02:25:51;19.77;;;4.33;;
14817;SDS011;7500;57.698;11.986;2023-09-30T02:28:17;17.90;;;4.67;;
14817;SDS011;7500;57.698;11.986;2023-09-30T02:30:45;23.03;;;4.77;;
14817;SDS011;7500;57.698;11.986;2023-09-30T02:33:12;18.47;;;5.00;;
14817;SDS011;7500;57.698;11.986;2023-09-30T02:35:43;19.10;;;5.03;;
14817;SDS011;7500;57.698;11.986;2023-09-30T02:38:10;25.73;;;5.03;;
14817;SDS011;7500;57.698;11.986;2023-09-30T02:40:37;21.90;;;4.60;;
14817;SDS011;7500;57.698;11.986;2023-09-30T02:43:05;22.57;;;4.70;;
14817;SDS011;7500;57.698;11.986;2023-09-30T02:45:32;24.50;;;4.70;;
14817;SDS011;7500;57.698;11.986;2023-09-30T02:47:59;23.93;;;5.07;;
14817;SDS011;7500;57.698;11.986;2023-09-30T02:50:26;19.10;;;4.63;;
14817;SDS011;7500;57.698;11.986;2023-09-30T02:52:52;22.40;;;5.00;;
14817;SDS011;7500;57.698;11.986;2023-09-30T02:55:19;22.73;;;5.27;;
14817;SDS011;7500;57.698;11.986;2023-09-30T02:57:46;16.53;;;4.70;;
14817;SDS011;7500;57.698;11.986;2023-09-30T03:00:12;19.03;;;4.60;;
14817;SDS011;7500;57.698;11.986;2023-09-30T03:02:48;22.87;;;4.67;;
14817;SDS011;7500;57.698;11.986;2023-09-30T03:05:16;24.83;;;4.77;;
14817;SDS011;7500;57.698;11.986;2023-09-30T03:07:43;22.90;;;4.93;;
14817;SDS011;7500;57.698;11.986;2023-09-30T03:10:09;28.30;;;5.30;;
14817;SDS011;7500;57.698;11.986;2023-09-30T03:12:37;23.43;;;4.70;;
14817;SDS011;7500;57.698;11.986;2023-09-30T03:15:04;18.80;;;4.60;;
14817;SDS011;7500;57.698;11.986;2023-09-30T03:17:31;21.90;;;4.60;;
14817;SDS011;7500;57.698;11.986;2023-09-30T03:19:58;29.60;;;5.30;;
14817;SDS011;7500;57.698;11.986;2023-09-30T03:22:26;19.13;;;4.70;;
14817;SDS011;7500;57.698;11.986;2023-09-30T03:24:54;24.47;;;4.90;;
14817;SDS011;7500;57.698;11.986;2023-09-30T03:27:22;22.97;;;4.90;;
14817;SDS011;7500;57.698;11.986;2023-09-30T03:29:48;22.90;;;5.20;;
14817;SDS011;7500;57.698;11.986;2023-09-30T03:32:15;20.30;;;4.30;;
14817;SDS011;7500;57.698;11.986;2023-09-30T03:34:42;24.97;;;5.00;;
14817;SDS011;7500;57.698;11.986;2023-09-30T03:37:11;20.73;;;4.70;;
14817;SDS011;7500;57.698;11.986;2023-09-30T03:39:39;17.73;;;4.30;;
14817;SDS011;7500;57.698;11.986;2023-09-30T03:42:06;21.60;;;4.77;;
14817;SDS011;7500;57.698;11.986;2023-09-30T03:44:36;16.97;;;4.20;;
14817;SDS011;7500;57.698;11.986;2023-09-30T03:47:03;21.73;;;4.13;;
14817;SDS011;7500;57.698;11.986;2023-09-30T03:49:30;20.23;;;4.83;;
14817;SDS011;7500;57.698;11.986;2023-09-30T03:51:56;28.73;;;4.80;;
14817;SDS011;7500;57.698;11.986;2023-09-30T03:54:23;25.33;;;4.53;;
14817;SDS011;7500;57.698;11.986;2023-09-30T03:56:51;20.67;;;4.23;;
14817;SDS011;7500;57.698;11.986;2023-09-30T03:59:17;16.37;;;4.33;;
14817;SDS011;7500;57.698;11.986;2023-09-30T04:01:44;19.90;;;4.80;;
14817;SDS011;7500;57.698;11.986;2023-09-30T04:04:12;21.27;;;4.77;;
14817;SDS011;7500;57.698;11.986;2023-09-30T04:06:38;19.80;;;5.07;;
14817;SDS011;7500;57.698;11.986;2023-09-30T04:09:05;20.33;;;4.20;;
14817;SDS011;7500;57.698;11.986;2023-09-30T04:11:35;17.60;;;4.27;;
14817;SDS011;7500;57.698;11.986;2023-09-30T04:14:04;25.63;;;4.60;;
14817;SDS011;7500;57.698;11.986;2023-09-30T04:16:31;19.77;;;4.30;;
14817;SDS011;7500;57.698;11.986;2023-09-30T04:18:57;22.13;;;4.47;;
14817;SDS011;7500;57.698;11.986;2023-09-30T04:21:24;26.20;;;5.60;;
14817;SDS011;7500;57.698;11.986;2023-09-30T04:23:52;24.37;;;4.30;;
14817;SDS011;7500;57.698;11.986;2023-09-30T04:26:18;19.33;;;4.30;;
14817;SDS011;7500;57.698;11.986;2023-09-30T04:28:45;22.17;;;5.27;;
14817;SDS011;7500;57.698;11.986;2023-09-30T04:31:13;20.37;;;4.60;;
14817;SDS011;7500;57.698;11.986;2023-09-30T04:33:39;23.83;;;4.43;;
14817;SDS011;7500;57.698;11.986;2023-09-30T04:36:06;27.07;;;4.33;;
14817;SDS011;7500;57.698;11.986;2023-09-30T04:38:33;24.77;;;4.43;;
14817;SDS011;7500;57.698;11.986;2023-09-30T04:41:02;17.37;;;3.90;;
14817;SDS011;7500;57.698;11.986;2023-09-30T04:43:32;26.67;;;5.00;;
14817;SDS011;7500;57.698;11.986;2023-09-30T04:45:59;22.73;;;5.00;;
14817;SDS011;7500;57.698;11.986;2023-09-30T04:48:27;23.33;;;4.80;;
14817;SDS011;7500;57.698;11.986;2023-09-30T04:50:54;22.57;;;4.90;;
14817;SDS011;7500;57.698;11.986;2023-09-30T04:53:21;18.70;;;4.77;;
14817;SDS011;7500;57.698;11.986;2023-09-30T04:55:48;25.70;;;5.47;;
14817;SDS011;7500;57.698;11.986;2023-09-30T04:58:15;26.23;;;4.80;;
14817;SDS011;7500;57.698;11.986;2023-09-30T05:00:42;18.63;;;4.80;;
14817;SDS011;7500;57.698;11.986;2023-09-30T05:03:09;21.30;;;4.30;;
14817;SDS011;7500;57.698;11.986;2023-09-30T05:05:36;22.13;;;4.10;;
14817;SDS011;7500;57.698;11.986;2023-09-30T05:08:03;22.67;;;4.83;;
14817;SDS011;7500;57.698;11.986;2023-09-30T05:10:31;18.10;;;4.00;;
14817;SDS011;7500;57.698;11.986;2023-09-30T05:12:58;27.47;;;5.03;;
14817;SDS011;7500;57.698;11.986;2023-09-30T05:15:25;21.60;;;4.43;;
14817;SDS011;7500;57.698;11.986;2023-09-30T05:17:54;19.63;;;3.90;;
14817;SDS011;7500;57.698;11.986;2023-09-30T05:20:20;17.87;;;3.87;;
14817;SDS011;7500;57.698;11.986;2023-09-30T05:22:49;17.17;;;3.83;;
14817;SDS011;7500;57.698;11.986;2023-09-30T05:25:16;22.10;;;4.37;;
14817;SDS011;7500;57.698;11.986;2023-09-30T05:27:43;17.57;;;3.70;;
14817;SDS011;7500;57.698;11.986;2023-09-30T05:30:09;26.03;;;4.17;;
14817;SDS011;7500;57.698;11.986;2023-09-30T05:32:37;19.20;;;4.30;;
14817;SDS011;7500;57.698;11.986;2023-09-30T05:35:04;18.03;;;4.20;;
14817;SDS011;7500;57.698;11.986;2023-09-30T05:37:38;18.20;;;3.63;;
14817;SDS011;7500;57.698;11.986;2023-09-30T05:40:06;19.27;;;3.83;;
14817;SDS011;7500;57.698;11.986;2023-09-30T05:42:41;19.33;;;4.10;;
14817;SDS011;7500;57.698;11.986;2023-09-30T05:45:09;19.33;;;4.00;;
14817;SDS011;7500;57.698;11.986;2023-09-30T05:47:37;17.27;;;3.93;;
14817;SDS011;7500;57.698;11.986;2023-09-30T05:50:05;19.73;;;3.53;;
14817;SDS011;7500;57.698;11.986;2023-09-30T05:52:32;11.30;;;2.97;;
14817;SDS011;7500;57.698;11.986;2023-09-30T05:54:59;12.23;;;3.17;;
14817;SDS011;7500;57.698;11.986;2023-09-30T05:57:28;11.43;;;3.07;;
14817;SDS011;7500;57.698;11.986;2023-09-30T05:59:55;12.10;;;2.47;;
14817;SDS011;7500;57.698;11.986;2023-09-30T06:02:21;13.40;;;2.90;;
14817;SDS011;7500;57.698;11.986;2023-09-30T06:04:48;10.17;;;2.57;;
14817;SDS011;7500;57.698;11.986;2023-09-30T06:07:16;15.80;;;3.03;;
14817;SDS011;7500;57.698;11.986;2023-09-30T06:09:45;19.77;;;3.53;;
14817;SDS011;7500;57.698;11.986;2023-09-30T06:12:12;13.17;;;3.07;;
14817;SDS011;7500;57.698;11.986;2023-09-30T06:14:40;15.55;;;3.10;;
14817;SDS011;7500;57.698;11.986;2023-09-30T06:17:07;13.53;;;3.10;;
14817;SDS011;7500;57.698;11.986;2023-09-30T06:19:33;15.40;;;3.00;;
14817;SDS011;7500;57.698;11.986;2023-09-30T06:22:00;16.17;;;2.80;;
14817;SDS011;7500;57.698;11.986;2023-09-30T06:24:28;14.73;;;3.17;;
14817;SDS011;7500;57.698;11.986;2023-09-30T06:26:55;11.83;;;3.37;;
14817;SDS011;7500;57.698;11.986;2023-09-30T06:29:21;10.43;;;2.97;;
14817;SDS011;7500;57.698;11.986;2023-09-30T06:31:49;12.07;;;2.80;;
14817;SDS011;7500;57.698;11.986;2023-09-30T06:34:16;8.83;;;2.53;;
14817;SDS011;7500;57.698;11.986;2023-09-30T06:36:42;15.90;;;2.53;;
14817;SDS011;7500;57.698;11.986;2023-09-30T06:39:09;9.10;;;2.40;;
14817;SDS011;7500;57.698;11.986;2023-09-30T06:41:36;12.30;;;2.50;;
14817;SDS011;7500;57.698;11.986;2023-09-30T06:44:03;8.93;;;2.37;;
14817;SDS011;7500;57.698;11.986;2023-09-30T06:46:29;11.40;;;2.43;;
14817;SDS011;7500;57.698;11.986;2023-09-30T06:48:57;10.73;;;2.53;;
14817;SDS011;7500;57.698;11.986;2023-09-30T06:51:24;9.13;;;2.13;;
14817;SDS011;7500;57.698;11.986;2023-09-30T06:53:51;9.07;;;2.30;;
14817;SDS011;7500;57.698;11.986;2023-09-30T06:56:18;10.90;;;2.23;;
14817;SDS011;7500;57.698;11.986;2023-09-30T06:58:45;11.87;;;2.20;;
14817;SDS011;7500;57.698;11.986;2023-09-30T07:01:14;13.53;;;2.70;;
14817;SDS011;7500;57.698;11.986;2023-09-30T07:03:41;11.90;;;2.53;;
14817;SDS011;7500;57.698;11.986;2023-09-30T07:06:09;9.30;;;2.33;;
14817;SDS011;7500;57.698;11.986;2023-09-30T07:08:36;10.77;;;2.73;;
14817;SDS011;7500;57.698;11.986;2023-09-30T07:11:03;10.67;;;2.57;;
14817;SDS011;7500;57.698;11.986;2023-09-30T07:13:30;11.47;;;2.43;;
14817;SDS011;7500;57.698;11.986;2023-09-30T07:15:57;15.60;;;3.23;;
14817;SDS011;7500;57.698;11.986;2023-09-30T07:18:24;16.47;;;2.57;;
14817;SDS011;7500;57.698;11.986;2023-09-30T07:20:51;10.07;;;2.73;;
14817;SDS011;7500;57.698;11.986;2023-09-30T07:23:18;15.33;;;2.87;;
14817;SDS011;7500;57.698;11.986;2023-09-30T07:25:45;20.27;;;3.10;;
14817;SDS011;7500;57.698;11.986;2023-09-30T07:28:12;18.37;;;3.20;;
14817;SDS011;7500;57.698;11.986;2023-09-30T07:30:39;14.20;;;2.67;;
14817;SDS011;7500;57.698;11.986;2023-09-30T07:33:06;15.27;;;3.07;;
14817;SDS011;7500;57.698;11.986;2023-09-30T07:35:33;12.60;;;2.97;;
14817;SDS011;7500;57.698;11.986;2023-09-30T07:38:00;12.80;;;2.43;;
14817;SDS011;7500;57.698;11.986;2023-09-30T07:40:28;11.57;;;1.87;;
14817;SDS011;7500;57.698;11.986;2023-09-30T07:42:54;13.40;;;2.70;;
14817;SDS011;7500;57.698;11.986;2023-09-30T07:45:21;12.40;;;2.57;;
14817;SDS011;7500;57.698;11.986;2023-09-30T07:47:48;10.77;;;2.20;;
14817;SDS011;7500;57.698;11.986;2023-09-30T07:50:14;13.37;;;2.20;;
14817;SDS011;7500;57.698;11.986;2023-09-30T07:52:41;9.70;;;2.40;;
14817;SDS011;7500;57.698;11.986;2023-09-30T07:55:08;8.67;;;2.00;;
14817;SDS011;7500;57.698;11.986;2023-09-30T07:57:36;9.60;;;2.37;;
14817;SDS011;7500;57.698;11.986;2023-09-30T08:00:03;14.30;;;2.83;;
14817;SDS011;7500;57.698;11.986;2023-09-30T08:02:33;14.27;;;2.60;;
14817;SDS011;7500;57.698;11.986;2023-09-30T08:05:01;13.70;;;2.60;;
14817;SDS011;7500;57.698;11.986;2023-09-30T08:07:28;8.80;;;2.27;;
14817;SDS011;7500;57.698;11.986;2023-09-30T08:09:54;10.70;;;2.30;;
14817;SDS011;7500;57.698;11.986;2023-09-30T08:12:21;10.67;;;2.33;;
14817;SDS011;7500;57.698;11.986;2023-09-30T08:14:49;14.83;;;2.97;;
14817;SDS011;7500;57.698;11.986;2023-09-30T08:17:16;16.53;;;2.93;;
14817;SDS011;7500;57.698;11.986;2023-09-30T08:19:43;14.43;;;2.50;;
14817;SDS011;7500;57.698;11.986;2023-09-30T08:22:11;11.87;;;2.70;;
14817;SDS011;7500;57.698;11.986;2023-09-30T08:24:38;15.90;;;3.00;;
14817;SDS011;7500;57.698;11.986;2023-09-30T08:27:04;16.57;;;3.20;;
14817;SDS011;7500;57.698;11.986;2023-09-30T08:29:33;12.93;;;3.20;;
14817;SDS011;7500;57.698;11.986;2023-09-30T08:32:02;14.37;;;3.63;;
14817;SDS011;7500;57.698;11.986;2023-09-30T08:34:29;14.67;;;3.33;;
14817;SDS011;7500;57.698;11.986;2023-09-30T08:36:55;15.23;;;3.30;;
14817;SDS011;7500;57.698;11.986;2023-09-30T08:39:22;13.37;;;3.50;;
14817;SDS011;7500;57.698;11.986;2023-09-30T08:41:49;19.33;;;4.07;;
14817;SDS011;7500;57.698;11.986;2023-09-30T08:44:16;14.40;;;2.90;;
14817;SDS011;7500;57.698;11.986;2023-09-30T08:46:43;11.27;;;2.90;;
14817;SDS011;7500;57.698;11.986;2023-09-30T08:49:11;11.77;;;3.10;;
14817;SDS011;7500;57.698;11.986;2023-09-30T08:51:39;19.53;;;3.87;;
14817;SDS011;7500;57.698;11.986;2023-09-30T08:54:05;13.00;;;2.83;;
14817;SDS011;7500;57.698;11.986;2023-09-30T08:56:32;15.07;;;3.10;;
14817;SDS011;7500;57.698;11.986;2023-09-30T08:58:59;10.00;;;2.60;;
14817;SDS011;7500;57.698;11.986;2023-09-30T09:01:26;7.83;;;2.47;;
14817;SDS011;7500;57.698;11.986;2023-09-30T09:03:53;13.07;;;3.10;;
14817;SDS011;7500;57.698;11.986;2023-09-30T09:06:21;13.03;;;2.73;;
14817;SDS011;7500;57.698;11.986;2023-09-30T09:08:48;11.73;;;3.03;;
14817;SDS011;7500;57.698;11.986;2023-09-30T09:11:15;12.23;;;3.53;;
14817;SDS011;7500;57.698;11.986;2023-09-30T09:13:46;12.83;;;2.87;;
14817;SDS011;7500;57.698;11.986;2023-09-30T09:16:14;11.73;;;3.23;;
14817;SDS011;7500;57.698;11.986;2023-09-30T09:18:41;10.83;;;2.83;;
14817;SDS011;7500;57.698;11.986;2023-09-30T09:21:08;10.10;;;2.77;;
14817;SDS011;7500;57.698;11.986;2023-09-30T09:23:39;10.77;;;2.67;;
14817;SDS011;7500;57.698;11.986;2023-09-30T09:26:06;12.00;;;2.30;;
14817;SDS011;7500;57.698;11.986;2023-09-30T09:28:36;11.70;;;2.63;;
14817;SDS011;7500;57.698;11.986;2023-09-30T09:31:18;9.73;;;2.40;;
14817;SDS011;7500;57.698;11.986;2023-09-30T09:33:45;15.97;;;3.17;;
14817;SDS011;7500;57.698;11.986;2023-09-30T09:36:12;11.67;;;2.37;;
14817;SDS011;7500;57.698;11.986;2023-09-30T09:38:44;10.73;;;2.87;;
14817;SDS011;7500;57.698;11.986;2023-09-30T09:41:13;13.77;;;2.70;;
14817;SDS011;7500;57.698;11.986;2023-09-30T09:43:39;13.10;;;3.40;;
14817;SDS011;7500;57.698;11.986;2023-09-30T09:46:07;16.20;;;3.40;;
14817;SDS011;7500;57.698;11.986;2023-09-30T09:48:34;14.93;;;3.10;;
14817;SDS011;7500;57.698;11.986;2023-09-30T09:51:01;14.53;;;3.03;;
14817;SDS011;7500;57.698;11.986;2023-09-30T09:53:28;12.80;;;3.20;;
14817;SDS011;7500;57.698;11.986;2023-09-30T09:55:57;16.57;;;4.13;;
14817;SDS011;7500;57.698;11.986;2023-09-30T09:58:25;15.23;;;3.47;;
14817;SDS011;7500;57.698;11.986;2023-09-30T10:00:56;18.53;;;4.30;;
14817;SDS011;7500;57.698;11.986;2023-09-30T10:03:23;16.90;;;3.80;;
14817;SDS011;7500;57.698;11.986;2023-09-30T10:05:50;16.53;;;3.53;;
14817;SDS011;7500;57.698;11.986;2023-09-30T10:08:16;19.80;;;3.77;;
14817;SDS011;7500;57.698;11.986;2023-09-30T10:10:44;18.03;;;4.17;;
14817;SDS011;7500;57.698;11.986;2023-09-30T10:15:53;11.80;;;3.50;;
14817;SDS011;7500;57.698;11.986;2023-09-30T10:18:20;15.43;;;3.87;;
14817;SDS011;7500;57.698;11.986;2023-09-30T10:20:46;13.13;;;3.70;;
14817;SDS011;7500;57.698;11.986;2023-09-30T10:23:23;16.40;;;3.70;;
14817;SDS011;7500;57.698;11.986;2023-09-30T10:25:52;12.57;;;3.53;;
14817;SDS011;7500;57.698;11.986;2023-09-30T10:28:32;16.23;;;3.67;;
14817;SDS011;7500;57.698;11.986;2023-09-30T10:31:09;16.23;;;3.93;;
14817;SDS011;7500;57.698;11.986;2023-09-30T10:33:40;15.67;;;3.60;;
14817;SDS011;7500;57.698;11.986;2023-09-30T10:36:27;15.50;;;4.37;;
14817;SDS011;7500;57.698;11.986;2023-09-30T10:38:54;15.27;;;3.20;;
14817;SDS011;7500;57.698;11.986;2023-09-30T10:46:44;15.40;;;3.43;;
14817;SDS011;7500;57.698;11.986;2023-09-30T10:51:59;15.93;;;4.23;;
14817;SDS011;7500;57.698;11.986;2023-09-30T10:54:26;14.90;;;3.87;;
14817;SDS011;7500;57.698;11.986;2023-09-30T10:56:53;18.23;;;4.00;;
14817;SDS011;7500;57.698;11.986;2023-09-30T10:59:21;16.43;;;4.63;;
14817;SDS011;7500;57.698;11.986;2023-09-30T11:01:49;18.40;;;4.80;;
14817;SDS011;7500;57.698;11.986;2023-09-30T11:04:16;19.03;;;4.67;;
14817;SDS011;7500;57.698;11.986;2023-09-30T11:06:44;27.73;;;5.77;;
14817;SDS011;7500;57.698;11.986;2023-09-30T11:09:15;24.97;;;5.47;;
14817;SDS011;7500;57.698;11.986;2023-09-30T11:11:42;18.20;;;4.37;;
14817;SDS011;7500;57.698;11.986;2023-09-30T11:14:17;17.67;;;4.60;;
14817;SDS011;7500;57.698;11.986;2023-09-30T11:16:43;15.50;;;4.17;;
14817;SDS011;7500;57.698;11.986;2023-09-30T11:19:11;16.20;;;4.50;;
14817;SDS011;7500;57.698;11.986;2023-09-30T11:21:38;16.57;;;4.43;;
14817;SDS011;7500;57.698;11.986;2023-09-30T11:24:05;12.03;;;3.20;;
14817;SDS011;7500;57.698;11.986;2023-09-30T11:26:33;9.90;;;2.97;;
14817;SDS011;7500;57.698;11.986;2023-09-30T11:29:06;10.83;;;2.93;;
14817;SDS011;7500;57.698;11.986;2023-09-30T11:31:33;13.90;;;3.70;;
14817;SDS011;7500;57.698;11.986;2023-09-30T11:34:00;14.13;;;3.20;;
14817;SDS011;7500;57.698;11.986;2023-09-30T11:36:30;10.13;;;2.90;;
14817;SDS011;7500;57.698;11.986;2023-09-30T11:38:57;12.40;;;3.33;;
14817;SDS011;7500;57.698;11.986;2023-09-30T11:41:31;14.30;;;3.60;;
14817;SDS011;7500;57.698;11.986;2023-09-30T11:43:59;12.40;;;3.40;;
14817;SDS011;7500;57.698;11.986;2023-09-30T11:46:26;12.20;;;3.80;;
14817;SDS011;7500;57.698;11.986;2023-09-30T11:48:57;17.47;;;3.57;;
14817;SDS011;7500;57.698;11.986;2023-09-30T11:51:24;21.10;;;4.10;;
14817;SDS011;7500;57.698;11.986;2023-09-30T11:53:53;13.27;;;3.63;;
14817;SDS011;7500;57.698;11.986;2023-09-30T11:56:19;17.80;;;3.53;;
14817;SDS011;7500;57.698;11.986;2023-09-30T11:58:47;14.70;;;3.83;;
14817;SDS011;7500;57.698;11.986;2023-09-30T12:01:14;10.87;;;3.50;;
14817;SDS011;7500;57.698;11.986;2023-09-30T12:03:41;15.87;;;4.13;;
14817;SDS011;7500;57.698;11.986;2023-09-30T12:06:08;13.70;;;4.00;;
14817;SDS011;7500;57.698;11.986;2023-09-30T12:08:38;15.67;;;4.47;;
14817;SDS011;7500;57.698;11.986;2023-09-30T12:11:06;16.07;;;3.93;;
14817;SDS011;7500;57.698;11.986;2023-09-30T12:13:33;17.57;;;6.53;;
14817;SDS011;7500;57.698;11.986;2023-09-30T12:15:59;17.07;;;4.67;;
14817;SDS011;7500;57.698;11.986;2023-09-30T12:18:26;20.53;;;4.73;;
14817;SDS011;7500;57.698;11.986;2023-09-30T12:20:53;16.20;;;4.03;;
14817;SDS011;7500;57.698;11.986;2023-09-30T12:23:19;17.77;;;4.33;;
14817;SDS011;7500;57.698;11.986;2023-09-30T12:25:46;22.90;;;4.47;;
14817;SDS011;7500;57.698;11.986;2023-09-30T12:28:14;17.77;;;4.40;;
14817;SDS011;7500;57.698;11.986;2023-09-30T12:30:40;15.17;;;3.90;;
14817;SDS011;7500;57.698;11.986;2023-09-30T12:33:08;17.63;;;4.00;;
14817;SDS011;7500;57.698;11.986;2023-09-30T12:35:35;15.40;;;3.70;;
14817;SDS011;7500;57.698;11.986;2023-09-30T12:38:02;18.87;;;4.80;;
14817;SDS011;7500;57.698;11.986;2023-09-30T12:40:28;13.03;;;4.03;;
14817;SDS011;7500;57.698;11.986;2023-09-30T12:42:55;16.33;;;4.03;;
14817;SDS011;7500;57.698;11.986;2023-09-30T12:45:24;11.17;;;3.30;;
14817;SDS011;7500;57.698;11.986;2023-09-30T12:47:51;15.17;;;3.67;;
14817;SDS011;7500;57.698;11.986;2023-09-30T12:50:19;15.23;;;3.90;;
14817;SDS011;7500;57.698;11.986;2023-09-30T12:52:45;15.67;;;3.50;;
14817;SDS011;7500;57.698;11.986;2023-09-30T12:55:12;16.37;;;3.53;;
14817;SDS011;7500;57.698;11.986;2023-09-30T12:57:39;16.40;;;3.50;;
14817;SDS011;7500;57.698;11.986;2023-09-30T13:00:06;15.20;;;4.00;;
14817;SDS011;7500;57.698;11.986;2023-09-30T13:02:36;18.37;;;4.03;;
14817;SDS011;7500;57.698;11.986;2023-09-30T13:05:03;14.77;;;3.57;;
14817;SDS011;7500;57.698;11.986;2023-09-30T13:07:32;12.20;;;3.60;;
14817;SDS011;7500;57.698;11.986;2023-09-30T13:09:58;13.60;;;3.50;;
14817;SDS011;7500;57.698;11.986;2023-09-30T13:12:26;12.10;;;3.23;;
14817;SDS011;7500;57.698;11.986;2023-09-30T13:14:53;14.93;;;4.13;;
14817;SDS011;7500;57.698;11.986;2023-09-30T13:17:21;13.13;;;3.40;;
14817;SDS011;7500;57.698;11.986;2023-09-30T13:19:50;16.77;;;4.57;;
14817;SDS011;7500;57.698;11.986;2023-09-30T13:22:16;17.67;;;4.10;;
14817;SDS011;7500;57.698;11.986;2023-09-30T13:24:43;16.83;;;5.00;;
14817;SDS011;7500;57.698;11.986;2023-09-30T13:27:09;14.90;;;4.40;;
14817;SDS011;7500;57.698;11.986;2023-09-30T13:29:36;12.30;;;4.07;;
14817;SDS011;7500;57.698;11.986;2023-09-30T13:32:03;19.03;;;4.00;;
14817;SDS011;7500;57.698;11.986;2023-09-30T13:34:30;14.77;;;3.17;;
14817;SDS011;7500;57.698;11.986;2023-09-30T13:36:58;15.83;;;3.87;;
14817;SDS011;7500;57.698;11.986;2023-09-30T13:39:24;13.67;;;3.20;;
14817;SDS011;7500;57.698;11.986;2023-09-30T13:41:51;20.57;;;3.90;;
14817;SDS011;7500;57.698;11.986;2023-09-30T13:44:18;13.90;;;3.50;;
14817;SDS011;7500;57.698;11.986;2023-09-30T13:46:44;13.23;;;4.00;;
14817;SDS011;7500;57.698;11.986;2023-09-30T13:49:11;18.80;;;5.00;;
14817;SDS011;7500;57.698;11.986;2023-09-30T13:51:38;13.17;;;3.50;;
14817;SDS011;7500;57.698;11.986;2023-09-30T13:54:06;13.87;;;3.30;;
14817;SDS011;7500;57.698;11.986;2023-09-30T13:56:33;15.33;;;4.07;;
14817;SDS011;7500;57.698;11.986;2023-09-30T13:59:00;15.20;;;3.30;;
14817;SDS011;7500;57.698;11.986;2023-09-30T14:01:26;13.07;;;3.30;;
14817;SDS011;7500;57.698;11.986;2023-09-30T14:03:53;13.87;;;3.60;;
14817;SDS011;7500;57.698;11.986;2023-09-30T14:06:22;9.93;;;3.17;;
14817;SDS011;7500;57.698;11.986;2023-09-30T14:08:48;10.43;;;2.70;;
14817;SDS011;7500;57.698;11.986;2023-09-30T14:11:16;11.90;;;3.23;;
14817;SDS011;7500;57.698;11.986;2023-09-30T14:13:43;16.93;;;3.20;;
14817;SDS011;7500;57.698;11.986;2023-09-30T14:16:10;12.97;;;3.20;;
14817;SDS011;7500;57.698;11.986;2023-09-30T14:18:36;13.13;;;4.00;;
14817;SDS011;7500;57.698;11.986;2023-09-30T14:21:04;12.50;;;3.40;;
14817;SDS011;7500;57.698;11.986;2023-09-30T14:23:31;13.20;;;3.83;;
14817;SDS011;7500;57.698;11.986;2023-09-30T14:25:57;13.17;;;3.50;;
14817;SDS011;7500;57.698;11.986;2023-09-30T14:28:27;15.57;;;3.47;;
14817;SDS011;7500;57.698;11.986;2023-09-30T14:30:53;12.97;;;3.37;;
14817;SDS011;7500;57.698;11.986;2023-09-30T14:33:20;13.63;;;3.93;;
14817;SDS011;7500;57.698;11.986;2023-09-30T14:35:46;10.77;;;3.27;;
14817;SDS011;7500;57.698;11.986;2023-09-30T14:38:13;11.13;;;3.57;;
14817;SDS011;7500;57.698;11.986;2023-09-30T14:40:40;12.97;;;3.30;;
14817;SDS011;7500;57.698;11.986;2023-09-30T14:43:07;14.03;;;3.27;;
14817;SDS011;7500;57.698;11.986;2023-09-30T14:45:38;11.53;;;3.17;;
14817;SDS011;7500;57.698;11.986;2023-09-30T14:48:05;14.07;;;3.50;;